createdAt,value
2023-03-05T00:01:35.675Z,100220.50
2023-03-05T00:04:38.455Z,100201.53
2023-03-05T00:07:40.764Z,100221.00
2023-03-05T00:10:43.520Z,100221.59
2023-03-05T00:13:46.344Z,100214.50
2023-03-05T00:16:49.081Z,100203.50
2023-03-05T00:19:51.552Z,100190.91
2023-03-05T00:22:54.214Z,100215.78
2023-03-05T00:25:56.671Z,100218.28
2023-03-05T00:28:59.450Z,100219.38
2023-03-05T00:32:01.916Z,100215.03
2023-03-05T00:35:05.061Z,100219.09
2023-03-05T00:38:07.447Z,100215.34
2023-03-05T00:41:10.169Z,100210.91
2023-03-05T00:44:13.066Z,100208.38
2023-03-05T00:47:18.446Z,100208.12
2023-03-05T00:50:20.849Z,100205.88
2023-03-05T00:53:23.851Z,100211.00
2023-03-05T00:56:28.344Z,100210.53
2023-03-05T00:59:31.348Z,100177.28
2023-03-05T01:02:34.794Z,100195.03
2023-03-05T01:05:38.122Z,100187.72
2023-03-05T01:08:40.742Z,100201.00
2023-03-05T01:11:43.418Z,100195.84
2023-03-05T01:14:45.891Z,100196.41
2023-03-05T01:17:48.628Z,100199.59
2023-03-05T01:20:51.137Z,100197.88
2023-03-05T01:23:53.903Z,100198.66
2023-03-05T01:26:56.196Z,100204.59
2023-03-05T01:29:59.177Z,100203.88
2023-03-05T01:33:02.269Z,100189.97
2023-03-05T01:36:13.371Z,100208.06
2023-03-05T01:39:16.514Z,100181.66
2023-03-05T01:42:21.081Z,100184.91
2023-03-05T01:45:23.447Z,100206.63
2023-03-05T01:48:26.691Z,100192.53
2023-03-05T01:51:35.416Z,100207.53
2023-03-05T01:54:48.959Z,100210.06
2023-03-05T01:57:57.767Z,100205.88
2023-03-05T02:01:01.862Z,100204.28
2023-03-05T02:04:07.239Z,100208.44
2023-03-05T02:07:10.783Z,100181.84
2023-03-05T02:10:22.658Z,100208.75
2023-03-05T02:13:29.527Z,100185.06
2023-03-05T02:16:36.810Z,100198.09
2023-03-05T02:20:02.328Z,100203.97
2023-03-05T02:23:05.125Z,100206.13
2023-03-05T02:26:10.039Z,100208.88
2023-03-05T02:29:19.275Z,100206.06
2023-03-05T02:32:21.809Z,100183.97
2023-03-05T02:35:25.324Z,100206.97
2023-03-05T02:38:28.030Z,100201.72
2023-03-05T02:41:30.784Z,100203.50
2023-03-05T02:44:33.541Z,100201.84
2023-03-05T02:47:36.161Z,100190.81
2023-03-05T02:50:39.855Z,100173.19
2023-03-05T02:53:42.726Z,100193.28
2023-03-05T02:56:45.574Z,100199.75
2023-03-05T02:59:48.515Z,100197.72
2023-03-05T03:02:51.456Z,100195.84
2023-03-05T03:05:54.166Z,100196.69
2023-03-05T03:08:57.436Z,100166.47
2023-03-05T03:12:00.018Z,100185.25
2023-03-05T03:15:02.502Z,100190.75
2023-03-05T03:18:05.253Z,100191.56
2023-03-05T03:21:07.840Z,100179.75
2023-03-05T03:24:10.522Z,100186.53
2023-03-05T03:27:12.909Z,100169.03
2023-03-05T03:30:16.224Z,100182.56
2023-03-05T03:33:18.811Z,100185.63
2023-03-05T03:36:21.443Z,100183.41
2023-03-05T03:39:25.548Z,100188.63
2023-03-05T03:42:28.201Z,100184.50
2023-03-05T03:45:30.664Z,100156.09
2023-03-05T03:48:33.916Z,100177.62
2023-03-05T03:51:36.289Z,100189.66
2023-03-05T03:54:38.984Z,100182.56
2023-03-05T03:57:41.262Z,100163.00
2023-03-05T04:00:44.087Z,100164.94
2023-03-05T04:03:47.153Z,100183.50
2023-03-05T04:06:49.554Z,100184.88
2023-03-05T04:09:52.387Z,100151.78
2023-03-05T04:12:54.705Z,100170.16
2023-03-05T04:15:58.827Z,100147.69
2023-03-05T04:19:01.264Z,100169.53
2023-03-05T04:22:04.049Z,100185.38
2023-03-05T04:25:08.389Z,100163.84
2023-03-05T04:28:11.962Z,100183.22
2023-03-05T04:31:14.372Z,100178.78
2023-03-05T04:34:17.131Z,100170.41
2023-03-05T04:37:19.537Z,100175.66
2023-03-05T04:40:22.260Z,100172.03
2023-03-05T04:43:24.637Z,100169.91
2023-03-05T04:46:27.372Z,100148.28
2023-03-05T04:49:29.934Z,100164.03
2023-03-05T04:52:32.861Z,100167.13
2023-03-05T04:55:35.153Z,100172.41
2023-03-05T04:58:37.759Z,100162.81
2023-03-05T05:01:40.191Z,100164.78
2023-03-05T05:04:45.186Z,100144.34
2023-03-05T05:07:47.657Z,100173.91
2023-03-05T05:11:01.624Z,100167.97
2023-03-05T05:14:04.331Z,100169.81
2023-03-05T05:17:07.361Z,100166.34
2023-03-05T05:20:12.492Z,100148.72
2023-03-05T05:23:15.600Z,100167.81
2023-03-05T05:26:17.954Z,100166.72
2023-03-05T05:29:20.625Z,100161.09
2023-03-05T05:32:24.459Z,100174.44
2023-03-05T05:35:27.163Z,100177.22
2023-03-05T05:38:29.554Z,100177.22
2023-03-05T05:41:32.336Z,100177.75
2023-03-05T05:44:34.982Z,100171.72
2023-03-05T05:47:37.853Z,100160.31
2023-03-05T05:50:41.170Z,100177.44
2023-03-05T05:53:44.316Z,100177.62
2023-03-05T05:56:46.652Z,100204.28
2023-03-05T05:59:49.361Z,100180.00
2023-03-05T06:02:51.865Z,100209.00
2023-03-05T06:05:54.675Z,100187.62
2023-03-05T06:08:57.448Z,100203.81
2023-03-05T06:12:00.182Z,100203.81
2023-03-05T06:15:02.534Z,100205.41
2023-03-05T06:18:05.317Z,100199.94
2023-03-05T06:21:11.994Z,100193.97
2023-03-05T06:24:14.653Z,100177.44
2023-03-05T06:27:16.998Z,100202.78
2023-03-05T06:30:20.692Z,100197.84
2023-03-05T06:33:23.088Z,100210.25
2023-03-05T06:36:26.090Z,100206.78
2023-03-05T06:39:28.428Z,100201.28
2023-03-05T06:42:31.154Z,100204.06
2023-03-05T06:45:33.514Z,100186.41
2023-03-05T06:48:36.405Z,100209.63
2023-03-05T06:51:40.558Z,100203.00
2023-03-05T06:54:43.245Z,100212.06
2023-03-05T06:57:45.765Z,100208.03
2023-03-05T07:00:48.458Z,100211.13
2023-03-05T07:03:55.440Z,100215.19
2023-03-05T07:06:59.202Z,100192.00
2023-03-05T07:10:01.841Z,100205.09
2023-03-05T07:13:04.520Z,100188.97
2023-03-05T07:16:09.107Z,100219.97
2023-03-05T07:19:11.840Z,100215.59
2023-03-05T07:22:14.210Z,100213.94
2023-03-05T07:25:21.609Z,100208.44
2023-03-05T07:28:23.967Z,100202.63
2023-03-05T07:31:30.919Z,100188.84
2023-03-05T07:34:33.314Z,100212.59
2023-03-05T07:37:36.013Z,100207.13
2023-03-05T07:40:38.400Z,100199.59
2023-03-05T07:43:41.192Z,100193.84
2023-03-05T07:46:44.595Z,100209.66
2023-03-05T07:49:47.269Z,100190.28
2023-03-05T07:52:49.563Z,100187.22
2023-03-05T07:55:52.428Z,100202.75
2023-03-05T07:58:54.772Z,100205.53
2023-03-05T08:01:57.969Z,100197.19
2023-03-05T08:05:00.771Z,100189.78
2023-03-05T08:08:03.543Z,100182.66
2023-03-05T08:11:08.581Z,100177.66
2023-03-05T08:14:12.007Z,100173.59
2023-03-05T08:17:14.747Z,100192.91
2023-03-05T08:20:17.229Z,100193.09
2023-03-05T08:23:19.871Z,100198.44
2023-03-05T08:26:24.555Z,100200.66
2023-03-05T08:29:27.367Z,100204.19
2023-03-05T08:32:29.869Z,100199.03
2023-03-05T08:35:34.762Z,100198.81
2023-03-05T08:38:37.501Z,100183.69
2023-03-05T08:41:40.228Z,100196.44
2023-03-05T08:44:42.623Z,100177.69
2023-03-05T08:47:45.265Z,100195.06
2023-03-05T08:50:48.236Z,100198.97
2023-03-05T08:53:50.910Z,100195.34
2023-03-05T08:56:53.441Z,100193.16
2023-03-05T08:59:56.117Z,100187.69
2023-03-05T09:02:58.619Z,100159.53
2023-03-05T09:06:03.479Z,100186.06
2023-03-05T09:09:07.719Z,100178.88
2023-03-05T09:12:12.316Z,100178.59
2023-03-05T09:15:14.827Z,100159.84
2023-03-05T09:18:17.548Z,100182.19
2023-03-05T09:21:19.971Z,100177.84
2023-03-05T09:24:22.658Z,100169.31
2023-03-05T09:27:25.022Z,100161.31
2023-03-05T09:30:27.816Z,100149.72
2023-03-05T09:33:31.937Z,100172.34
2023-03-05T09:36:34.766Z,100168.50
2023-03-05T09:39:37.219Z,100154.44
2023-03-05T09:42:42.733Z,100172.91
2023-03-05T09:46:03.158Z,100168.78
2023-03-05T09:49:17.948Z,100174.03
2023-03-05T09:52:23.691Z,100168.19
2023-03-05T09:55:40.463Z,100170.13
2023-03-05T09:58:48.404Z,100142.25
2023-03-05T10:01:53.128Z,100144.75
2023-03-05T10:05:17.245Z,100134.25
2023-03-05T10:08:25.183Z,100151.38
2023-03-05T10:11:39.659Z,100142.78
2023-03-05T10:14:42.240Z,100128.16
2023-03-05T10:18:16.598Z,100138.34
2023-03-05T10:21:27.293Z,100138.00
2023-03-05T10:25:18.469Z,100138.66
2023-03-05T10:28:29.666Z,100137.25
2023-03-05T10:31:48.024Z,100133.66
2023-03-05T10:35:12.287Z,100125.13
2023-03-05T10:38:36.978Z,100123.41
2023-03-05T10:42:10.442Z,100125.69
2023-03-05T10:45:36.792Z,100123.19
2023-03-05T10:48:50.965Z,100117.16
2023-03-05T10:51:59.297Z,100116.28
2023-03-05T10:55:02.019Z,100119.28
2023-03-05T10:58:15.782Z,100119.00
2023-03-05T11:01:18.148Z,100115.72
2023-03-05T11:04:30.060Z,100113.28
2023-03-05T11:07:35.795Z,100104.44
2023-03-05T11:10:38.478Z,100110.53
2023-03-05T11:13:54.882Z,100108.84
2023-03-05T11:16:57.883Z,100092.25
2023-03-05T11:20:28.856Z,100083.78
2023-03-05T11:23:31.526Z,100089.28
2023-03-05T11:26:34.185Z,100089.78
2023-03-05T11:29:48.380Z,100073.16
2023-03-05T11:32:51.012Z,100067.16
2023-03-05T11:36:11.266Z,100092.31
2023-03-05T11:39:19.423Z,100087.03
2023-03-05T11:42:25.230Z,100085.63
2023-03-05T11:45:29.367Z,100077.91
2023-03-05T11:48:42.575Z,100056.44
2023-03-05T11:51:57.553Z,100046.50
2023-03-05T11:55:16.007Z,100031.28
2023-03-05T11:58:30.204Z,100048.38
2023-03-05T12:01:40.345Z,100063.53
2023-03-05T12:04:43.060Z,100056.56
2023-03-05T12:07:50.095Z,100046.31
2023-03-05T12:10:53.034Z,100017.34
2023-03-05T12:14:00.822Z,100013.50
2023-03-05T12:17:28.437Z,100028.59
2023-03-05T12:20:38.130Z,100025.03
2023-03-05T12:23:55.552Z,100019.50
2023-03-05T12:27:03.980Z,99982.84
2023-03-05T12:30:32.543Z,99997.22
2023-03-05T12:33:36.561Z,100004.50
2023-03-05T12:36:39.764Z,99975.94
2023-03-05T12:39:51.056Z,99994.22
2023-03-05T12:43:26.750Z,99994.09
2023-03-05T12:46:29.744Z,99969.94
2023-03-05T12:49:39.755Z,99975.75
2023-03-05T12:52:45.967Z,99967.94
2023-03-05T12:56:02.371Z,99972.59
2023-03-05T12:59:05.031Z,99960.16
2023-03-05T13:02:21.953Z,99965.97
2023-03-05T13:05:37.420Z,99945.59
2023-03-05T13:08:40.088Z,99969.53
2023-03-05T13:11:45.144Z,99969.63
2023-03-05T13:14:57.053Z,99962.41
2023-03-05T13:18:03.394Z,99948.03
2023-03-05T13:21:07.889Z,99949.38
2023-03-05T13:24:18.480Z,99956.63
2023-03-05T13:27:32.421Z,99948.00
2023-03-05T13:30:34.963Z,99954.81
2023-03-05T13:33:38.102Z,99960.84
2023-03-05T13:36:45.351Z,99952.50
2023-03-05T13:39:56.369Z,99934.22
2023-03-05T13:43:20.731Z,99960.53
2023-03-05T13:46:42.172Z,99952.56
2023-03-05T13:49:47.242Z,99954.91
2023-03-05T13:52:50.233Z,99958.22
2023-03-05T13:55:56.523Z,99947.84
2023-03-05T13:58:59.408Z,99929.19
2023-03-05T14:02:06.001Z,99944.75
2023-03-05T14:05:15.316Z,99959.41
2023-03-05T14:08:23.988Z,99957.47
2023-03-05T14:11:26.749Z,99933.56
2023-03-05T14:14:31.646Z,99961.72
2023-03-05T14:17:39.096Z,99961.38
2023-03-05T14:21:01.549Z,99941.88
2023-03-05T14:24:14.485Z,99955.63
2023-03-05T14:27:21.174Z,99956.47
2023-03-05T14:30:25.656Z,99943.72
2023-03-05T14:33:31.520Z,99934.94
2023-03-05T14:36:34.898Z,99904.88
2023-03-05T14:39:55.175Z,99915.69
2023-03-05T14:43:00.411Z,99930.53
2023-03-05T14:46:04.532Z,99926.69
2023-03-05T14:49:07.223Z,99921.41
2023-03-05T14:52:15.369Z,99914.75
2023-03-05T14:55:20.645Z,99905.69
2023-03-05T14:58:26.313Z,99910.91
2023-03-05T15:01:29.097Z,99900.53
2023-03-05T15:04:31.493Z,99911.78
2023-03-05T15:07:34.265Z,99890.81
2023-03-05T15:10:36.630Z,99921.72
2023-03-05T15:13:39.418Z,99899.72
2023-03-05T15:16:44.445Z,99901.84
2023-03-05T15:19:47.541Z,99904.34
2023-03-05T15:22:50.227Z,99896.63
2023-03-05T15:25:52.936Z,99917.78
2023-03-05T15:28:55.329Z,99919.44
2023-03-05T15:31:58.326Z,99914.81
2023-03-05T15:35:00.896Z,99907.16
2023-03-05T15:38:03.978Z,99920.22
2023-03-05T15:41:06.517Z,99922.41
2023-03-05T15:44:09.201Z,99928.50
2023-03-05T15:47:11.592Z,99927.97
2023-03-05T15:50:14.232Z,99920.81
2023-03-05T15:53:16.625Z,99900.38
2023-03-05T15:56:19.838Z,99925.19
2023-03-05T15:59:22.197Z,99933.47
2023-03-05T16:02:25.197Z,99934.03
2023-03-05T16:05:27.914Z,99929.34
2023-03-05T16:08:30.292Z,99926.59
2023-03-05T16:11:37.224Z,99910.63
2023-03-05T16:14:40.558Z,99925.50
2023-03-05T16:17:45.458Z,99937.34
2023-03-05T16:20:47.890Z,99926.34
2023-03-05T16:23:50.522Z,99946.16
2023-03-05T16:26:53.110Z,99960.78
2023-03-05T16:29:56.320Z,99951.66
2023-03-05T16:32:59.590Z,99958.28
2023-03-05T16:36:14.294Z,99954.44
2023-03-05T16:39:16.660Z,99959.41
2023-03-05T16:42:19.318Z,99955.00
2023-03-05T16:45:21.777Z,99934.59
2023-03-05T16:48:24.382Z,99949.19
2023-03-05T16:51:27.505Z,99942.28
2023-03-05T16:54:30.157Z,99935.97
2023-03-05T16:57:32.668Z,99956.06
2023-03-05T17:00:35.432Z,99954.94
2023-03-05T17:03:41.296Z,99953.31
2023-03-05T17:06:46.923Z,99954.66
2023-03-05T17:09:50.471Z,99953.59
2023-03-05T17:12:53.303Z,99964.34
2023-03-05T17:15:57.089Z,99957.47
2023-03-05T17:19:00.346Z,99937.88
2023-03-05T17:22:04.316Z,99954.66
2023-03-05T17:25:07.685Z,99943.03
2023-03-05T17:28:10.655Z,99962.63
2023-03-05T17:31:14.383Z,99959.84
2023-03-05T17:34:18.422Z,99961.25
2023-03-05T17:37:26.826Z,99967.84
2023-03-05T17:40:29.402Z,99942.50
2023-03-05T17:43:32.138Z,99949.66
2023-03-05T17:46:34.567Z,99977.50
2023-03-05T17:49:37.226Z,99979.72
2023-03-05T17:52:41.112Z,99956.31
2023-03-05T17:55:43.745Z,99946.94
2023-03-05T17:58:46.152Z,99970.37
2023-03-05T18:01:48.964Z,99968.44
2023-03-05T18:04:52.162Z,99960.69
2023-03-05T18:07:55.610Z,99977.81
2023-03-05T18:10:58.286Z,99956.06
2023-03-05T18:14:00.868Z,99972.59
2023-03-05T18:17:03.604Z,99968.19
2023-03-05T18:20:07.386Z,99972.31
2023-03-05T18:23:10.947Z,99961.56
2023-03-05T18:26:13.655Z,99956.88
2023-03-05T18:29:18.641Z,99928.72
2023-03-05T18:32:24.428Z,99959.09
2023-03-05T18:35:29.261Z,99965.97
2023-03-05T18:38:32.119Z,99966.25
2023-03-05T18:41:34.747Z,99937.59
2023-03-05T18:44:37.183Z,99959.34
2023-03-05T18:47:42.055Z,99959.94
2023-03-05T18:50:44.696Z,99961.56
2023-03-05T18:53:47.924Z,99960.44
2023-03-05T18:56:50.285Z,99938.63
2023-03-05T18:59:55.233Z,99949.63
2023-03-05T19:02:58.115Z,99933.94
2023-03-05T19:06:00.902Z,99947.19
2023-03-05T19:09:59.757Z,99941.41
2023-03-05T19:13:43.664Z,99958.19
2023-03-05T19:16:46.129Z,99956.50
2023-03-05T19:19:53.546Z,99935.06
2023-03-05T19:22:57.998Z,99945.84
2023-03-05T19:26:02.134Z,99949.38
2023-03-05T19:29:05.427Z,99958.22
2023-03-05T19:32:10.544Z,99961.50
2023-03-05T19:35:17.436Z,99948.84
2023-03-05T19:38:20.280Z,99958.72
2023-03-05T19:41:22.954Z,99958.22
2023-03-05T19:44:26.248Z,99953.50
2023-03-05T19:47:28.735Z,99959.00
2023-03-05T19:50:33.467Z,99956.81
2023-03-05T19:53:36.763Z,99947.44
2023-03-05T19:56:40.642Z,99951.28
2023-03-05T19:59:44.167Z,99945.50
2023-03-05T20:02:48.644Z,99929.47
2023-03-05T20:05:51.267Z,99949.63
2023-03-05T20:08:54.396Z,99946.59
2023-03-05T20:11:59.387Z,99941.41
2023-03-05T20:15:02.021Z,99934.78
2023-03-05T20:18:04.732Z,99927.84
2023-03-05T20:21:08.226Z,99920.97
2023-03-05T20:24:13.489Z,99943.88
2023-03-05T20:27:15.823Z,99933.16
2023-03-05T20:30:19.206Z,99937.84
2023-03-05T20:33:22.106Z,99935.88
2023-03-05T20:36:24.825Z,99914.66
2023-03-05T20:39:27.246Z,99936.72
2023-03-05T20:42:29.858Z,99938.09
2023-03-05T20:45:34.162Z,99936.94
2023-03-05T20:48:39.588Z,99933.91
2023-03-05T20:51:42.005Z,99938.31
2023-03-05T20:54:47.684Z,99937.47
2023-03-05T20:57:50.148Z,99927.84
2023-03-05T21:00:53.446Z,99913.25
2023-03-05T21:03:59.779Z,99928.97
2023-03-05T21:07:05.336Z,99927.84
2023-03-05T21:10:07.832Z,99933.06
2023-03-05T21:13:10.590Z,99927.59
2023-03-05T21:16:22.644Z,99928.16
2023-03-05T21:19:25.398Z,99934.25
2023-03-05T21:22:27.838Z,99932.03
2023-03-05T21:25:35.041Z,99927.31
2023-03-05T21:28:39.882Z,99903.59
2023-03-05T21:31:42.685Z,99932.28
2023-03-05T21:34:46.463Z,99932.00
2023-03-05T21:37:49.272Z,99923.75
2023-03-05T21:40:53.917Z,99902.50
2023-03-05T21:43:57.485Z,99930.03
2023-03-05T21:46:59.889Z,99894.25
2023-03-05T21:50:03.144Z,99918.47
2023-03-05T21:53:05.636Z,99916.81
2023-03-05T21:56:34.619Z,99920.69
2023-03-05T21:59:41.324Z,99921.81
2023-03-05T22:02:44.085Z,99911.28
2023-03-05T22:05:46.747Z,99913.22
2023-03-05T22:08:49.210Z,99910.41
2023-03-05T22:11:51.912Z,99909.06
2023-03-05T22:14:54.226Z,99888.13
2023-03-05T22:17:57.002Z,99905.47
2023-03-05T22:21:00.378Z,99905.75
2023-03-05T22:24:03.066Z,99883.16
2023-03-05T22:27:05.459Z,99877.13
2023-03-05T22:30:09.878Z,99900.84
2023-03-05T22:33:12.679Z,99893.16
2023-03-05T22:36:15.816Z,99893.38
2023-03-05T22:39:18.298Z,99869.13
2023-03-05T22:42:21.104Z,99867.78
2023-03-05T22:45:23.514Z,99871.63
2023-03-05T22:48:26.274Z,99869.94
2023-03-05T22:51:28.614Z,99862.81
2023-03-05T22:54:31.294Z,99881.56
2023-03-05T22:57:33.971Z,99876.59
2023-03-05T23:00:36.668Z,99884.00
2023-03-05T23:03:39.816Z,99876.06
2023-03-05T23:06:42.478Z,99878.53
2023-03-05T23:09:45.576Z,99874.97
2023-03-05T23:12:52.101Z,99878.28
2023-03-05T23:15:54.573Z,99864.81
2023-03-05T23:18:57.504Z,99871.16
2023-03-05T23:21:59.789Z,99867.84
2023-03-05T23:25:02.624Z,99876.38
2023-03-05T23:28:05.306Z,99872.25
2023-03-05T23:31:08.057Z,99870.34
2023-03-05T23:34:10.464Z,99868.09
2023-03-05T23:37:13.062Z,99867.28
2023-03-05T23:40:20.263Z,99864.25
2023-03-05T23:43:24.920Z,99871.69
2023-03-05T23:46:27.550Z,99863.44
2023-03-05T23:49:30.404Z,99874.44
2023-03-05T23:52:33.537Z,99864.84
2023-03-05T23:55:40.706Z,99865.13
2023-03-05T23:58:43.077Z,99862.91
